createdAt,value
2018-07-01T00:00:18.766Z,17.14
2018-07-01T00:01:18.692Z,17.10
2018-07-01T00:02:18.797Z,17.13
2018-07-01T00:03:18.715Z,17.05
2018-07-01T00:04:18.720Z,17.09
2018-07-01T00:05:18.737Z,17.02
2018-07-01T00:06:18.757Z,16.99
2018-07-01T00:07:18.766Z,17.09
2018-07-01T00:08:18.877Z,17.07
2018-07-01T00:09:18.772Z,17.10
2018-07-01T00:10:18.846Z,16.97
2018-07-01T00:11:18.828Z,16.94
2018-07-01T00:12:18.833Z,16.91
2018-07-01T00:13:18.953Z,16.82
2018-07-01T00:14:18.839Z,16.91
2018-07-01T00:15:18.913Z,16.82
2018-07-01T00:16:18.882Z,16.89
2018-07-01T00:17:18.905Z,16.91
2018-07-01T00:18:19.058Z,16.91
2018-07-01T00:19:18.934Z,16.89
2018-07-01T00:20:18.920Z,16.84
2018-07-01T00:21:18.965Z,16.87
2018-07-01T00:22:18.967Z,16.76
2018-07-01T00:23:19.042Z,16.83
2018-07-01T00:24:19.000Z,16.92
2018-07-01T00:25:19.006Z,16.76
2018-07-01T00:26:19.022Z,16.83
2018-07-01T00:27:19.033Z,16.80
2018-07-01T00:28:19.188Z,16.94
2018-07-01T00:29:19.059Z,16.97
2018-07-01T00:30:19.116Z,17.05
2018-07-01T00:31:19.103Z,17.13
2018-07-01T00:32:19.109Z,17.17
2018-07-01T00:33:19.264Z,17.17
2018-07-01T00:34:19.129Z,17.12
2018-07-01T00:35:19.136Z,17.07
2018-07-01T00:36:19.205Z,17.10
2018-07-01T00:37:19.175Z,17.04
2018-07-01T00:38:19.323Z,16.97
2018-07-01T00:39:19.175Z,17.05
2018-07-01T00:40:19.203Z,16.97
2018-07-01T00:41:19.214Z,16.91
2018-07-01T00:42:19.217Z,16.91
2018-07-01T00:43:19.401Z,16.94
2018-07-01T00:44:19.255Z,16.87
2018-07-01T00:45:19.262Z,16.89
2018-07-01T00:46:19.276Z,17.04
2018-07-01T00:47:19.283Z,17.07
2018-07-01T00:48:19.444Z,17.01
2018-07-01T00:49:19.342Z,16.99
2018-07-01T00:50:19.341Z,17.04
2018-07-01T00:51:19.353Z,17.13
2018-07-01T00:52:19.367Z,17.10
2018-07-01T00:53:19.535Z,17.14
2018-07-01T00:54:19.397Z,17.05
2018-07-01T00:55:19.416Z,17.04
2018-07-01T00:56:19.419Z,17.04
2018-07-01T00:57:19.434Z,17.01
2018-07-01T00:58:19.490Z,17.13
2018-07-01T00:59:19.463Z,16.97
2018-07-01T01:00:19.476Z,17.05
2018-07-01T01:01:19.581Z,17.05
2018-07-01T01:02:19.500Z,17.10
2018-07-01T01:03:19.495Z,17.04
2018-07-01T01:04:19.529Z,17.05
2018-07-01T01:05:19.539Z,17.12
2018-07-01T01:06:19.706Z,17.14
2018-07-01T01:07:19.554Z,17.10
2018-07-01T01:08:19.574Z,17.10
2018-07-01T01:09:19.590Z,17.01
2018-07-01T01:10:19.591Z,17.02
2018-07-01T01:11:19.626Z,16.97
2018-07-01T01:12:19.786Z,16.86
2018-07-01T01:13:19.631Z,16.87
2018-07-01T01:14:19.666Z,16.82
2018-07-01T01:15:19.672Z,16.80
2018-07-01T01:16:19.690Z,16.83
2018-07-01T01:17:19.914Z,16.87
2018-07-01T01:18:19.704Z,16.92
2018-07-01T01:19:19.709Z,16.89
2018-07-01T01:20:19.719Z,16.95
2018-07-01T01:21:19.736Z,17.04
2018-07-01T01:22:19.846Z,17.01
2018-07-01T01:23:19.769Z,17.01
2018-07-01T01:24:19.797Z,16.94
2018-07-01T01:25:19.794Z,16.97
2018-07-01T01:26:19.817Z,16.99
2018-07-01T01:27:19.821Z,17.02
2018-07-01T01:28:20.007Z,17.02
2018-07-01T01:29:19.860Z,17.02
2018-07-01T01:30:19.910Z,17.04
2018-07-01T01:31:19.894Z,17.04
2018-07-01T01:32:19.899Z,17.01
2018-07-01T01:33:20.067Z,17.14
2018-07-01T01:34:19.923Z,17.13
2018-07-01T01:35:19.939Z,17.07
2018-07-01T01:36:19.940Z,17.16
2018-07-01T01:37:19.959Z,17.17
2018-07-01T01:38:20.068Z,17.23
2018-07-01T01:39:19.994Z,17.24
2018-07-01T01:40:19.982Z,17.30
2018-07-01T01:41:20.060Z,17.31
2018-07-01T01:42:20.021Z,17.37
2018-07-01T01:43:20.086Z,17.34
2018-07-01T01:44:20.046Z,17.31
2018-07-01T01:45:20.065Z,17.17
2018-07-01T01:46:20.070Z,17.30
2018-07-01T01:47:20.074Z,17.19
2018-07-01T01:48:20.250Z,17.17
2018-07-01T01:49:20.116Z,17.14
2018-07-01T01:50:20.113Z,17.13
2018-07-01T01:51:20.125Z,17.02
2018-07-01T01:52:20.155Z,17.02
2018-07-01T01:53:20.221Z,17.09
2018-07-01T01:54:20.181Z,16.99
2018-07-01T01:55:20.202Z,16.95
2018-07-01T01:56:20.375Z,16.98
2018-07-01T01:57:20.228Z,16.91
2018-07-01T01:58:20.276Z,16.87
2018-07-01T01:59:20.248Z,16.86
2018-07-01T02:00:20.262Z,16.82
2018-07-01T02:01:20.364Z,16.86
2018-07-01T02:02:20.273Z,16.87
2018-07-01T02:03:20.294Z,16.79
2018-07-01T02:04:20.293Z,16.82
2018-07-01T02:05:20.327Z,16.76
2018-07-01T02:06:20.484Z,16.76
2018-07-01T02:07:20.352Z,16.82
2018-07-01T02:08:20.369Z,16.77
2018-07-01T02:09:20.386Z,16.82
2018-07-01T02:10:20.391Z,16.79
2018-07-01T02:11:20.552Z,16.76
2018-07-01T02:12:20.427Z,16.68
2018-07-01T02:13:20.422Z,16.65
2018-07-01T02:14:20.429Z,16.62
2018-07-01T02:15:20.445Z,16.61
2018-07-01T02:16:20.506Z,16.61
2018-07-01T02:17:20.484Z,16.46
2018-07-01T02:18:20.496Z,16.47
2018-07-01T02:19:20.489Z,16.57
2018-07-01T02:20:20.519Z,16.59
2018-07-01T02:21:20.635Z,16.57
2018-07-01T02:22:20.543Z,16.40
2018-07-01T02:23:20.599Z,16.50
2018-07-01T02:24:20.563Z,16.43
2018-07-01T02:25:20.591Z,16.54
2018-07-01T02:26:20.640Z,16.59
2018-07-01T02:27:20.602Z,16.62
2018-07-01T02:28:20.627Z,16.65
2018-07-01T02:29:20.793Z,16.66
2018-07-01T02:30:20.637Z,16.65
2018-07-01T02:31:20.643Z,16.79
2018-07-01T02:32:20.654Z,16.76
2018-07-01T02:33:20.680Z,16.72
2018-07-01T02:34:20.967Z,16.68
2018-07-01T02:35:20.754Z,16.68
2018-07-01T02:36:20.718Z,16.64
2018-07-01T02:37:20.743Z,16.79
2018-07-01T02:38:20.736Z,16.69
2018-07-01T02:39:20.766Z,16.72
2018-07-01T02:40:20.909Z,16.77
2018-07-01T02:41:20.791Z,16.64
2018-07-01T02:42:20.804Z,16.65
2018-07-01T02:43:20.810Z,16.73
2018-07-01T02:44:20.831Z,16.69
2018-07-01T02:45:20.834Z,16.73
2018-07-01T02:46:21.001Z,16.64
2018-07-01T02:47:20.877Z,16.65
2018-07-01T02:48:20.878Z,16.64
2018-07-01T02:49:20.887Z,16.62
2018-07-01T02:50:20.904Z,16.62
2018-07-01T02:51:21.054Z,16.64
2018-07-01T02:52:20.924Z,16.59
2018-07-01T02:53:20.954Z,16.61
2018-07-01T02:54:20.954Z,16.62
2018-07-01T02:55:20.949Z,16.64
2018-07-01T02:56:21.136Z,16.62
2018-07-01T02:57:20.992Z,16.59
2018-07-01T02:58:20.999Z,16.66
2018-07-01T02:59:21.017Z,16.61
2018-07-01T03:00:21.035Z,16.66
2018-07-01T03:01:21.188Z,16.61
2018-07-01T03:02:21.041Z,16.61
2018-07-01T03:03:21.061Z,16.64
2018-07-01T03:04:21.090Z,16.58
2018-07-01T03:05:21.097Z,16.50
2018-07-01T03:06:21.196Z,16.61
2018-07-01T03:07:21.116Z,16.54
2018-07-01T03:08:21.123Z,16.58
2018-07-01T03:09:21.147Z,16.47
2018-07-01T03:10:21.152Z,16.51
2018-07-01T03:11:21.268Z,16.58
2018-07-01T03:12:21.188Z,16.54
2018-07-01T03:13:21.206Z,16.50
2018-07-01T03:14:21.203Z,16.47
2018-07-01T03:15:21.234Z,16.36
2018-07-01T03:16:21.498Z,16.32
2018-07-01T03:17:21.233Z,16.39
2018-07-01T03:18:21.295Z,16.36
2018-07-01T03:19:21.272Z,16.26
2018-07-01T03:20:21.264Z,16.31
2018-07-01T03:21:21.444Z,16.34
2018-07-01T03:22:21.312Z,16.22
2018-07-01T03:23:21.321Z,16.28
2018-07-01T03:24:21.334Z,16.24
2018-07-01T03:25:21.340Z,16.18
2018-07-01T03:26:21.518Z,16.18
2018-07-01T03:27:21.364Z,16.24
2018-07-01T03:28:21.389Z,16.25
2018-07-01T03:29:21.393Z,16.21
2018-07-01T03:30:21.402Z,16.22
2018-07-01T03:31:21.577Z,16.28
2018-07-01T03:32:21.469Z,16.26
2018-07-01T03:33:21.455Z,16.29
2018-07-01T03:34:21.501Z,16.26
2018-07-01T03:35:21.451Z,16.36
2018-07-01T03:36:21.580Z,16.47
2018-07-01T03:37:21.492Z,16.46
2018-07-01T03:38:21.510Z,16.50
2018-07-01T03:39:21.522Z,16.46
2018-07-01T03:40:21.528Z,16.46
2018-07-01T03:41:21.702Z,16.44
2018-07-01T03:42:21.554Z,16.46
2018-07-01T03:43:21.554Z,16.43
2018-07-01T03:44:21.594Z,16.41
2018-07-01T03:45:21.612Z,16.46
2018-07-01T03:46:21.716Z,16.32
2018-07-01T03:47:21.628Z,16.44
2018-07-01T03:48:21.621Z,16.40
2018-07-01T03:49:21.635Z,16.39
2018-07-01T03:50:21.644Z,16.37
2018-07-01T03:51:21.657Z,16.36
2018-07-01T03:52:21.785Z,16.29
2018-07-01T03:53:21.704Z,16.29
2018-07-01T03:54:21.720Z,16.37
2018-07-01T03:55:21.711Z,16.41
2018-07-01T03:56:21.724Z,16.37
2018-07-01T03:57:21.746Z,16.31
2018-07-01T03:58:21.898Z,16.26
2018-07-01T03:59:21.777Z,16.37
2018-07-01T04:00:21.808Z,16.34
2018-07-01T04:01:21.799Z,16.31
2018-07-01T04:02:21.837Z,16.34
2018-07-01T04:03:21.987Z,16.36
2018-07-01T04:04:21.840Z,16.39
2018-07-01T04:05:21.853Z,16.34
2018-07-01T04:06:21.905Z,16.39
2018-07-01T04:07:21.882Z,16.40
2018-07-01T04:08:21.925Z,16.40
2018-07-01T04:09:21.909Z,16.46
2018-07-01T04:10:21.910Z,16.47
2018-07-01T04:11:22.079Z,16.39
2018-07-01T04:12:21.923Z,16.44
2018-07-01T04:13:21.947Z,16.41
2018-07-01T04:14:21.967Z,16.46
2018-07-01T04:15:21.971Z,16.41
2018-07-01T04:16:22.121Z,16.40
2018-07-01T04:17:22.007Z,16.44
2018-07-01T04:18:22.014Z,16.43
2018-07-01T04:19:22.034Z,16.43
2018-07-01T04:20:22.057Z,16.41
2018-07-01T04:21:22.134Z,16.50
2018-07-01T04:22:22.062Z,16.54
2018-07-01T04:23:22.059Z,16.54
2018-07-01T04:24:22.078Z,16.47
2018-07-01T04:25:22.098Z,16.58
2018-07-01T04:26:22.108Z,16.55
2018-07-01T04:27:22.174Z,16.50
2018-07-01T04:28:22.130Z,16.57
2018-07-01T04:29:22.163Z,16.50
2018-07-01T04:30:22.267Z,16.54
2018-07-01T04:31:22.179Z,16.58
2018-07-01T04:32:22.201Z,16.50
2018-07-01T04:33:22.210Z,16.49
2018-07-01T04:34:22.234Z,16.58
2018-07-01T04:35:22.381Z,16.62
2018-07-01T04:36:22.229Z,16.64
2018-07-01T04:37:22.260Z,16.69
2018-07-01T04:38:22.258Z,16.65
2018-07-01T04:39:22.283Z,16.73
2018-07-01T04:40:22.377Z,16.72
2018-07-01T04:41:22.299Z,16.76
2018-07-01T04:42:22.312Z,16.72
2018-07-01T04:43:22.317Z,16.72
2018-07-01T04:44:22.349Z,16.80
2018-07-01T04:45:22.498Z,16.80
2018-07-01T04:46:22.357Z,16.68
2018-07-01T04:47:22.376Z,16.74
2018-07-01T04:48:22.405Z,16.80
2018-07-01T04:49:22.420Z,16.77
2018-07-01T04:50:22.578Z,16.79
2018-07-01T04:51:22.420Z,16.77
2018-07-01T04:52:22.435Z,16.72
2018-07-01T04:53:22.457Z,16.66
2018-07-01T04:54:22.479Z,16.87
2018-07-01T04:55:22.772Z,16.82
2018-07-01T04:56:22.544Z,16.80
2018-07-01T04:57:22.516Z,16.84
2018-07-01T04:58:22.571Z,16.77
2018-07-01T04:59:22.521Z,16.82
2018-07-01T05:00:22.747Z,16.76
2018-07-01T05:01:22.570Z,16.79
2018-07-01T05:02:22.578Z,16.79
2018-07-01T05:03:22.588Z,16.68
2018-07-01T05:04:22.588Z,16.74
2018-07-01T05:05:22.773Z,16.82
2018-07-01T05:06:22.613Z,16.73
2018-07-01T05:07:22.652Z,16.83
2018-07-01T05:08:22.657Z,16.84
2018-07-01T05:09:22.672Z,16.83
2018-07-01T05:10:22.778Z,16.82
2018-07-01T05:11:22.680Z,16.76
2018-07-01T05:12:22.712Z,16.77
2018-07-01T05:13:22.720Z,16.74
2018-07-01T05:14:22.744Z,16.72
2018-07-01T05:15:22.947Z,16.80
2018-07-01T05:16:22.765Z,16.73
2018-07-01T05:17:22.777Z,16.74
2018-07-01T05:18:22.768Z,16.74
2018-07-01T05:19:22.785Z,16.74
2018-07-01T05:20:22.957Z,16.68
2018-07-01T05:21:22.822Z,16.77
2018-07-01T05:22:22.842Z,16.74
2018-07-01T05:23:22.847Z,16.74
2018-07-01T05:24:22.846Z,16.76
2018-07-01T05:25:22.979Z,16.72
2018-07-01T05:26:22.871Z,16.72
2018-07-01T05:27:22.900Z,16.79
2018-07-01T05:28:22.951Z,16.83
2018-07-01T05:29:22.922Z,16.79
2018-07-01T05:30:23.035Z,16.80
2018-07-01T05:31:22.960Z,16.83
2018-07-01T05:32:22.957Z,16.86
2018-07-01T05:33:22.987Z,16.86
2018-07-01T05:34:23.041Z,16.91
2018-07-01T05:35:23.158Z,16.87
2018-07-01T05:36:23.025Z,16.79
2018-07-01T05:37:23.019Z,16.83
2018-07-01T05:38:23.061Z,16.86
2018-07-01T05:39:23.061Z,16.83
2018-07-01T05:40:23.205Z,16.77
2018-07-01T05:41:23.081Z,16.86
2018-07-01T05:42:23.081Z,16.83
2018-07-01T05:43:23.092Z,16.76
2018-07-01T05:44:23.160Z,16.80
2018-07-01T05:45:23.136Z,16.82
2018-07-01T05:46:23.231Z,16.83
2018-07-01T05:47:23.163Z,16.82
2018-07-01T05:48:23.185Z,16.76
2018-07-01T05:49:23.207Z,16.77
2018-07-01T05:50:23.209Z,16.82
2018-07-01T05:51:23.367Z,16.86
2018-07-01T05:52:23.230Z,16.82
2018-07-01T05:53:23.241Z,16.79
2018-07-01T05:54:23.253Z,16.79
2018-07-01T05:55:23.262Z,16.80
2018-07-01T05:56:23.438Z,16.87
2018-07-01T05:57:23.282Z,16.89
2018-07-01T05:58:23.318Z,16.94
2018-07-01T05:59:23.327Z,16.84
2018-07-01T06:00:23.325Z,16.91
2018-07-01T06:01:23.496Z,16.89
2018-07-01T06:02:23.347Z,16.83
2018-07-01T06:03:23.352Z,16.74
2018-07-01T06:04:23.371Z,16.82
2018-07-01T06:05:23.396Z,16.83
2018-07-01T06:06:23.542Z,16.76
2018-07-01T06:07:23.420Z,16.73
2018-07-01T06:08:23.476Z,16.72
2018-07-01T06:09:23.427Z,16.72
2018-07-01T06:10:23.502Z,16.76
2018-07-01T06:11:23.632Z,16.74
2018-07-01T06:12:23.527Z,16.73
2018-07-01T06:13:23.535Z,16.86
2018-07-01T06:14:23.548Z,16.76
2018-07-01T06:15:23.537Z,16.80
2018-07-01T06:16:23.701Z,16.77
2018-07-01T06:17:23.533Z,16.82
2018-07-01T06:18:23.555Z,16.76
2018-07-01T06:19:23.570Z,16.80
2018-07-01T06:20:23.593Z,16.76
2018-07-01T06:21:23.752Z,16.82
2018-07-01T06:22:23.609Z,16.83
2018-07-01T06:23:23.625Z,16.77
2018-07-01T06:24:23.676Z,16.79
2018-07-01T06:25:23.653Z,16.94
2018-07-01T06:26:23.825Z,16.77
2018-07-01T06:27:23.716Z,16.79
2018-07-01T06:28:23.733Z,16.83
2018-07-01T06:29:23.686Z,16.89
2018-07-01T06:30:23.767Z,16.89
2018-07-01T06:31:23.884Z,16.91
2018-07-01T06:32:23.725Z,16.91
2018-07-01T06:33:23.756Z,16.86
2018-07-01T06:34:23.767Z,16.92
2018-07-01T06:35:23.779Z,16.91
2018-07-01T06:36:23.803Z,16.91
2018-07-01T06:37:23.958Z,16.92
2018-07-01T06:38:23.820Z,16.89
2018-07-01T06:39:23.828Z,16.89
2018-07-01T06:40:23.855Z,16.99
2018-07-01T06:41:23.868Z,17.04
2018-07-01T06:42:23.887Z,17.04
2018-07-01T06:43:24.039Z,16.99
2018-07-01T06:44:23.886Z,17.05
2018-07-01T06:45:23.918Z,16.99
2018-07-01T06:46:23.909Z,17.09
2018-07-01T06:47:23.920Z,17.04
2018-07-01T06:48:24.104Z,16.99
2018-07-01T06:49:23.980Z,16.99
2018-07-01T06:50:23.972Z,17.04
2018-07-01T06:51:23.997Z,16.89
2018-07-01T06:52:24.004Z,16.89
2018-07-01T06:53:24.099Z,16.89
2018-07-01T06:54:24.017Z,16.91
2018-07-01T06:55:24.042Z,16.92
2018-07-01T06:56:24.088Z,16.92
2018-07-01T06:57:24.057Z,16.89
2018-07-01T06:58:24.217Z,16.86
2018-07-01T06:59:24.089Z,16.89
2018-07-01T07:00:24.103Z,16.77
2018-07-01T07:01:24.132Z,16.76
2018-07-01T07:02:24.178Z,16.79
2018-07-01T07:03:24.232Z,16.80
2018-07-01T07:04:24.140Z,16.80
2018-07-01T07:05:24.167Z,16.69
2018-07-01T07:06:24.195Z,16.74
2018-07-01T07:07:24.190Z,16.73
2018-07-01T07:08:24.264Z,16.64
2018-07-01T07:09:24.208Z,16.64
2018-07-01T07:10:24.223Z,16.62
2018-07-01T07:11:24.254Z,16.58
2018-07-01T07:12:24.416Z,16.62
2018-07-01T07:13:24.274Z,16.55
2018-07-01T07:14:24.294Z,16.47
2018-07-01T07:15:24.305Z,16.47
2018-07-01T07:16:24.369Z,16.49
2018-07-01T07:17:24.493Z,16.43
2018-07-01T07:18:24.321Z,16.50
2018-07-01T07:19:24.358Z,16.43
2018-07-01T07:20:24.358Z,16.50
2018-07-01T07:21:24.360Z,16.40
2018-07-01T07:22:24.425Z,16.44
2018-07-01T07:23:24.405Z,16.36
2018-07-01T07:24:24.577Z,16.34
2018-07-01T07:25:24.424Z,16.41
2018-07-01T07:26:24.432Z,16.39
2018-07-01T07:27:24.437Z,16.34
2018-07-01T07:28:24.461Z,16.40
2018-07-01T07:29:24.622Z,16.44
2018-07-01T07:30:24.487Z,16.39
2018-07-01T07:31:24.492Z,16.41
2018-07-01T07:32:24.517Z,16.29
2018-07-01T07:33:24.579Z,16.31
2018-07-01T07:34:24.751Z,16.34
2018-07-01T07:35:24.597Z,16.24
2018-07-01T07:36:24.571Z,16.24
2018-07-01T07:37:24.572Z,16.08
2018-07-01T07:38:24.583Z,16.12
2018-07-01T07:39:24.740Z,16.12
2018-07-01T07:40:24.605Z,16.09
2018-07-01T07:41:24.619Z,16.09
2018-07-01T07:42:24.630Z,16.10
2018-07-01T07:43:24.652Z,16.12
2018-07-01T07:44:24.814Z,16.08
2018-07-01T07:45:24.691Z,16.03
2018-07-01T07:46:24.710Z,16.03
2018-07-01T07:47:24.702Z,16.08
2018-07-01T07:48:24.714Z,16.03
2018-07-01T07:49:24.715Z,16.03
2018-07-01T07:50:24.902Z,16.00
2018-07-01T07:51:24.763Z,15.99
2018-07-01T07:52:24.755Z,16.02
2018-07-01T07:53:24.772Z,15.91
2018-07-01T07:54:24.781Z,15.99
2018-07-01T07:55:24.946Z,16.00
2018-07-01T07:56:24.809Z,15.99
2018-07-01T07:57:24.838Z,16.05
2018-07-01T07:58:24.838Z,15.94
2018-07-01T07:59:24.844Z,15.94
2018-07-01T08:00:24.865Z,15.96
2018-07-01T08:01:25.043Z,15.98
2018-07-01T08:02:24.892Z,16.02
2018-07-01T08:03:24.924Z,16.00
2018-07-01T08:04:24.916Z,15.98
2018-07-01T08:05:24.935Z,15.99
2018-07-01T08:06:25.095Z,16.00
2018-07-01T08:07:25.067Z,15.99
2018-07-01T08:08:24.963Z,15.96
2018-07-01T08:09:25.026Z,16.03
2018-07-01T08:10:24.985Z,16.02
2018-07-01T08:11:25.060Z,16.03
2018-07-01T08:12:25.017Z,16.05
2018-07-01T08:13:25.179Z,16.09
2018-07-01T08:14:25.044Z,16.06
2018-07-01T08:15:25.079Z,16.02
2018-07-01T08:16:25.076Z,15.99
2018-07-01T08:17:25.082Z,16.00
2018-07-01T08:18:25.233Z,16.05
2018-07-01T08:19:25.114Z,15.98
2018-07-01T08:20:25.130Z,16.02
2018-07-01T08:21:25.138Z,15.96
2018-07-01T08:22:25.146Z,16.00
2018-07-01T08:23:25.255Z,15.98
2018-07-01T08:24:25.181Z,15.98
2018-07-01T08:25:25.172Z,16.02
2018-07-01T08:26:25.206Z,16.02
2018-07-01T08:27:25.254Z,15.96
2018-07-01T08:28:25.353Z,15.91
2018-07-01T08:29:25.254Z,15.88
2018-07-01T08:30:25.261Z,15.84
2018-07-01T08:31:25.254Z,15.81
2018-07-01T08:32:25.276Z,15.87
2018-07-01T08:33:25.436Z,15.87
2018-07-01T08:34:25.296Z,15.87
2018-07-01T08:35:25.305Z,15.87
2018-07-01T08:36:25.329Z,15.88
2018-07-01T08:37:25.344Z,15.99
2018-07-01T08:38:25.497Z,15.91
2018-07-01T08:39:25.369Z,16.02
2018-07-01T08:40:25.370Z,15.99
2018-07-01T08:41:25.382Z,16.02
2018-07-01T08:42:25.400Z,16.05
2018-07-01T08:43:25.563Z,15.98
2018-07-01T08:44:25.420Z,16.06
2018-07-01T08:45:25.417Z,16.06
2018-07-01T08:46:25.446Z,16.08
2018-07-01T08:47:25.468Z,16.06
2018-07-01T08:48:25.575Z,16.05
2018-07-01T08:49:25.493Z,16.06
2018-07-01T08:50:25.506Z,16.16
2018-07-01T08:51:25.513Z,16.16
2018-07-01T08:52:25.565Z,16.12
2018-07-01T08:53:25.685Z,16.05
2018-07-01T08:54:25.541Z,16.09
2018-07-01T08:55:25.563Z,16.09
2018-07-01T08:56:25.568Z,16.16
2018-07-01T08:57:25.588Z,16.05
2018-07-01T08:58:25.742Z,16.08
2018-07-01T08:59:25.600Z,16.16
2018-07-01T09:00:25.607Z,16.17
2018-07-01T09:01:25.626Z,16.10
2018-07-01T09:02:25.633Z,16.24
2018-07-01T09:03:25.806Z,16.13
2018-07-01T09:04:25.665Z,16.13
2018-07-01T09:05:25.695Z,16.10
2018-07-01T09:06:25.739Z,16.16
2018-07-01T09:07:25.724Z,16.10
2018-07-01T09:08:25.734Z,16.09
2018-07-01T09:09:25.887Z,16.12
2018-07-01T09:10:25.756Z,16.09
2018-07-01T09:11:25.754Z,16.12
2018-07-01T09:12:25.777Z,16.18
2018-07-01T09:13:25.792Z,16.16
2018-07-01T09:14:25.958Z,16.12
2018-07-01T09:15:25.819Z,16.09
2018-07-01T09:16:25.827Z,16.08
2018-07-01T09:17:25.852Z,16.09
2018-07-01T09:18:25.863Z,16.09
2018-07-01T09:19:26.020Z,16.17
2018-07-01T09:20:25.858Z,16.09
2018-07-01T09:21:25.868Z,16.09
2018-07-01T09:22:25.894Z,16.08
2018-07-01T09:23:25.947Z,16.10
2018-07-01T09:24:25.919Z,16.09
2018-07-01T09:25:26.098Z,16.12
2018-07-01T09:26:25.949Z,16.06
2018-07-01T09:27:25.967Z,16.16
2018-07-01T09:28:25.981Z,16.10
2018-07-01T09:29:26.029Z,16.13
2018-07-01T09:30:25.996Z,16.13
2018-07-01T09:31:26.110Z,16.02
2018-07-01T09:32:26.028Z,16.06
2018-07-01T09:33:26.044Z,16.06
2018-07-01T09:34:26.120Z,16.00
2018-07-01T09:35:26.067Z,16.03
2018-07-01T09:36:26.177Z,16.02
2018-07-01T09:37:26.075Z,16.03
2018-07-01T09:38:26.102Z,16.03
2018-07-01T09:39:26.100Z,15.90
2018-07-01T09:40:26.161Z,15.90
2018-07-01T09:41:26.243Z,15.88
2018-07-01T09:42:26.191Z,15.87
2018-07-01T09:43:26.171Z,15.78
2018-07-01T09:44:26.182Z,15.80
2018-07-01T09:45:26.177Z,15.72
2018-07-01T09:46:26.202Z,15.80
2018-07-01T09:47:26.305Z,15.81
2018-07-01T09:48:26.221Z,15.78
2018-07-01T09:49:26.220Z,15.72
2018-07-01T09:50:26.330Z,15.78
2018-07-01T09:51:26.245Z,15.72
2018-07-01T09:52:26.377Z,15.73
2018-07-01T09:53:26.295Z,15.73
2018-07-01T09:54:26.301Z,15.66
2018-07-01T09:55:26.320Z,15.60
2018-07-01T09:56:26.327Z,15.63
2018-07-01T09:57:26.441Z,15.65
2018-07-01T09:58:26.363Z,15.65
2018-07-01T09:59:26.340Z,15.62
2018-07-01T10:00:26.360Z,15.62
2018-07-01T10:01:26.370Z,15.63
2018-07-01T10:02:26.485Z,15.62
2018-07-01T10:03:26.419Z,15.62
2018-07-01T10:04:26.406Z,15.65
2018-07-01T10:05:26.435Z,15.67
2018-07-01T10:06:26.456Z,15.60
2018-07-01T10:07:26.561Z,15.65
2018-07-01T10:08:26.467Z,15.67
2018-07-01T10:09:26.473Z,15.69
2018-07-01T10:10:26.483Z,15.65
2018-07-01T10:11:26.497Z,15.72
2018-07-01T10:12:26.661Z,15.69
2018-07-01T10:13:26.515Z,15.62
2018-07-01T10:14:26.533Z,15.67
2018-07-01T10:15:26.555Z,15.66
2018-07-01T10:16:26.613Z,15.66
2018-07-01T10:17:26.633Z,15.65
2018-07-01T10:18:26.596Z,15.80
2018-07-01T10:19:26.604Z,15.76
2018-07-01T10:20:26.627Z,15.80
2018-07-01T10:21:26.625Z,15.81
2018-07-01T10:22:26.798Z,15.75
2018-07-01T10:23:26.650Z,15.83
2018-07-01T10:24:26.663Z,15.75
2018-07-01T10:25:26.684Z,15.78
2018-07-01T10:26:26.707Z,15.81
2018-07-01T10:27:26.815Z,15.81
2018-07-01T10:28:26.726Z,15.87
2018-07-01T10:29:26.735Z,15.90
2018-07-01T10:30:26.741Z,15.88
2018-07-01T10:31:26.772Z,15.94
2018-07-01T10:32:26.790Z,15.99
2018-07-01T10:33:26.877Z,15.96
2018-07-01T10:34:26.782Z,16.05
2018-07-01T10:35:26.815Z,16.08
2018-07-01T10:36:26.861Z,16.08
2018-07-01T10:37:26.839Z,16.18
2018-07-01T10:38:26.948Z,16.25
2018-07-01T10:39:26.864Z,16.22
2018-07-01T10:40:26.867Z,16.16
2018-07-01T10:41:26.877Z,16.25
2018-07-01T10:42:26.900Z,16.31
2018-07-01T10:43:27.010Z,16.29
2018-07-01T10:44:26.901Z,16.41
2018-07-01T10:45:26.927Z,16.41
2018-07-01T10:46:26.951Z,16.41
2018-07-01T10:47:26.953Z,16.39
2018-07-01T10:48:26.953Z,16.46
2018-07-01T10:49:27.189Z,16.44
2018-07-01T10:50:26.993Z,16.66
2018-07-01T10:51:27.121Z,16.73
2018-07-01T10:52:27.034Z,16.83
2018-07-01T10:53:27.018Z,16.84
2018-07-01T10:54:27.148Z,16.83
2018-07-01T10:55:27.050Z,16.92
2018-07-01T10:56:27.076Z,17.05
2018-07-01T10:57:27.076Z,17.04
2018-07-01T10:58:27.127Z,17.14
2018-07-01T10:59:27.254Z,17.34
2018-07-01T11:00:27.111Z,17.30
2018-07-01T11:01:27.124Z,17.44
2018-07-01T11:02:27.204Z,17.39
2018-07-01T11:03:27.183Z,17.52
2018-07-01T11:04:27.268Z,17.68
2018-07-01T11:05:27.182Z,17.68
2018-07-01T11:06:27.212Z,17.76
2018-07-01T11:07:27.224Z,17.75
2018-07-01T11:08:27.239Z,17.88
2018-07-01T11:09:27.403Z,17.98
2018-07-01T11:10:27.271Z,18.02
2018-07-01T11:11:27.276Z,18.09
2018-07-01T11:12:27.299Z,18.19
2018-07-01T11:13:27.287Z,18.34
2018-07-01T11:14:27.431Z,18.37
2018-07-01T11:15:27.375Z,18.36
2018-07-01T11:16:27.345Z,18.45
2018-07-01T11:17:27.364Z,18.43
2018-07-01T11:18:27.384Z,18.71
2018-07-01T11:19:27.681Z,18.81
2018-07-01T11:20:27.536Z,18.79
2018-07-01T11:21:27.412Z,18.85
2018-07-01T11:22:27.420Z,18.92
2018-07-01T11:23:27.450Z,18.98
2018-07-01T11:24:27.448Z,19.07
2018-07-01T11:25:27.634Z,19.12
2018-07-01T11:26:27.510Z,19.24
2018-07-01T11:27:27.632Z,19.29
2018-07-01T11:28:27.524Z,19.20
2018-07-01T11:29:27.531Z,19.34
2018-07-01T11:30:27.685Z,19.24
2018-07-01T11:31:27.566Z,19.26
2018-07-01T11:32:27.584Z,19.38
2018-07-01T11:33:27.590Z,19.44
2018-07-01T11:34:27.607Z,19.64
2018-07-01T11:35:27.716Z,19.74
2018-07-01T11:36:27.644Z,19.87
2018-07-01T11:37:27.665Z,19.96
2018-07-01T11:38:27.681Z,19.94
2018-07-01T11:39:27.701Z,19.82
2018-07-01T11:40:27.810Z,19.81
2018-07-01T11:41:27.712Z,19.84
2018-07-01T11:42:27.773Z,19.84
2018-07-01T11:43:27.743Z,19.79
2018-07-01T11:44:27.759Z,19.79
2018-07-01T11:45:27.786Z,19.96
2018-07-01T11:46:27.890Z,20.19
2018-07-01T11:47:27.796Z,20.37
2018-07-01T11:48:27.811Z,20.56
2018-07-01T11:49:27.889Z,20.71
2018-07-01T11:50:27.904Z,20.96
2018-07-01T11:51:28.035Z,21.20
2018-07-01T11:52:27.936Z,21.53
2018-07-01T11:53:27.895Z,21.77
2018-07-01T11:54:27.923Z,22.08
2018-07-01T11:55:27.927Z,22.33
2018-07-01T11:56:28.117Z,22.44
2018-07-01T11:57:27.978Z,22.58
2018-07-01T11:58:27.979Z,22.89
2018-07-01T11:59:28.014Z,23.39
2018-07-01T12:00:28.011Z,23.70
2018-07-01T12:01:28.084Z,23.91
2018-07-01T12:02:28.219Z,23.99
2018-07-01T12:03:28.062Z,23.66
2018-07-01T12:04:28.095Z,23.71
2018-07-01T12:05:28.128Z,23.85
2018-07-01T12:06:28.131Z,24.03
2018-07-01T12:07:28.251Z,23.84
2018-07-01T12:09:28.193Z,24.07
2018-07-01T12:10:28.216Z,24.06
2018-07-01T12:11:28.207Z,24.19
2018-07-01T12:12:28.290Z,24.16
2018-07-01T12:13:28.257Z,24.25
2018-07-01T12:14:28.288Z,24.41
2018-07-01T12:15:28.281Z,24.25
2018-07-01T12:16:28.319Z,24.22
2018-07-01T12:17:28.433Z,24.16
2018-07-01T12:18:28.334Z,24.25
2018-07-01T12:19:28.377Z,24.01
2018-07-01T12:20:28.405Z,24.06
2018-07-01T12:21:28.415Z,24.19
2018-07-01T12:22:28.539Z,24.10
2018-07-01T12:23:28.590Z,23.67
2018-07-01T12:24:28.465Z,23.71
2018-07-01T12:25:28.477Z,23.55
2018-07-01T12:26:28.486Z,23.55
2018-07-01T12:27:28.548Z,23.66
2018-07-01T12:28:28.523Z,23.63
2018-07-01T12:29:28.654Z,23.62
2018-07-01T12:30:28.568Z,23.67
2018-07-01T12:31:28.596Z,23.63
2018-07-01T12:32:28.596Z,23.62
2018-07-01T12:33:28.620Z,23.55
2018-07-01T12:34:28.651Z,23.69
2018-07-01T12:35:28.767Z,23.67
2018-07-01T12:36:28.667Z,23.85
2018-07-01T12:37:28.705Z,23.81
2018-07-01T12:38:28.725Z,23.85
2018-07-01T12:39:28.718Z,23.91
2018-07-01T12:40:28.834Z,23.92
2018-07-01T12:41:28.768Z,23.91
2018-07-01T12:42:28.879Z,23.88
2018-07-01T12:43:28.801Z,23.89
2018-07-01T12:44:28.827Z,23.89
2018-07-01T12:45:28.924Z,23.91
2018-07-01T12:46:28.869Z,23.67
2018-07-01T12:47:28.860Z,23.54
2018-07-01T12:48:28.895Z,23.39
2018-07-01T12:49:28.917Z,23.08
2018-07-01T12:50:29.002Z,22.84
2018-07-01T12:51:28.990Z,22.77
2018-07-01T12:52:28.951Z,22.70
2018-07-01T12:53:29.122Z,22.62